CCM26I LFKB-LIRF
Flight info
| Callsign | CCM26I |
|---|---|
| Flight time | 0h 31m |
| Altitude | 20000 |
| Route | MOULE DCT BEGUD DCT KARDU/N0387F190 DCT ELKAP DCT BIBEK DCT OXERU |
| Aircraft | A320/M-SDE3FGHIRWY/LB1 |
Departure
| Time | 2026-05-05 16:44 |
|---|---|
| Airport | Bastia-Poretta International airport (LFKB) |
Arrival
| Time | 2026-05-05 17:16 |
|---|---|
| Airport | Rome–Fiumicino Leonardo da Vinci International Airport (LIRF) |
| Time | Latitude | Longitude | Altitude | Speed | Heading |
|---|---|---|---|---|---|
| 2026-05-05 16:25 | 42.54831 | 9.48168 | 35 ft | 0 kts | 252° |
| 2026-05-05 16:33 | 42.54835 | 9.48186 | 33 ft | 4 kts | 252° |
| 2026-05-05 16:33 | 42.54843 | 9.48218 | 34 ft | 1 kts | 253° |
| 2026-05-05 16:34 | 42.54851 | 9.48247 | 35 ft | 4 kts | 230° |
| 2026-05-05 16:34 | 42.54870 | 9.48261 | 34 ft | 4 kts | 166° |
| 2026-05-05 16:34 | 42.54885 | 9.48255 | 34 ft | 0 kts | 162° |
| 2026-05-05 16:38 | 42.54883 | 9.48256 | 34 ft | 3 kts | 162° |
| 2026-05-05 16:38 | 42.54862 | 9.48265 | 35 ft | 2 kts | 162° |
| 2026-05-05 16:38 | 42.54853 | 9.48269 | 34 ft | 1 kts | 162° |
| 2026-05-05 16:39 | 42.54822 | 9.48282 | 35 ft | 9 kts | 163° |
| 2026-05-05 16:39 | 42.54762 | 9.48307 | 35 ft | 9 kts | 163° |
| 2026-05-05 16:39 | 42.54708 | 9.48330 | 35 ft | 8 kts | 163° |
| 2026-05-05 16:39 | 42.54659 | 9.48350 | 35 ft | 7 kts | 163° |
| 2026-05-05 16:40 | 42.54614 | 9.48369 | 35 ft | 6 kts | 163° |
| 2026-05-05 16:40 | 42.54575 | 9.48386 | 35 ft | 6 kts | 163° |
| 2026-05-05 16:40 | 42.54534 | 9.48403 | 35 ft | 9 kts | 163° |
| 2026-05-05 16:40 | 42.54469 | 9.48420 | 35 ft | 9 kts | 180° |
| 2026-05-05 16:41 | 42.54406 | 9.48418 | 34 ft | 9 kts | 174° |
| 2026-05-05 16:41 | 42.54331 | 9.48444 | 35 ft | 13 kts | 163° |
| 2026-05-05 16:41 | 42.54248 | 9.48479 | 35 ft | 12 kts | 162° |
| 2026-05-05 16:41 | 42.54175 | 9.48519 | 35 ft | 11 kts | 147° |
| 2026-05-05 16:42 | 42.54133 | 9.48593 | 35 ft | 9 kts | 112° |
| 2026-05-05 16:42 | 42.54129 | 9.48672 | 35 ft | 8 kts | 80° |
| 2026-05-05 16:42 | 42.54148 | 9.48733 | 35 ft | 6 kts | 55° |
| 2026-05-05 16:42 | 42.54176 | 9.48775 | 35 ft | 5 kts | 47° |
| 2026-05-05 16:43 | 42.54199 | 9.48803 | 36 ft | 4 kts | 31° |
| 2026-05-05 16:43 | 42.54228 | 9.48807 | 35 ft | 4 kts | 351° |
| 2026-05-05 16:43 | 42.54240 | 9.48803 | 35 ft | 0 kts | 347° |
| 2026-05-05 16:43 | 42.54241 | 9.48803 | 35 ft | 4 kts | 347° |
| 2026-05-05 16:44 | 42.54540 | 9.48677 | 33 ft | 83 kts | 342° |
| 2026-05-05 16:44 | 42.55290 | 9.48361 | 38 ft | 141 kts | 342° |
| 2026-05-05 16:44 | 42.56329 | 9.47945 | 416 ft | 158 kts | 344° |
| 2026-05-05 16:44 | 42.57426 | 9.47779 | 1077 ft | 163 kts | 16° |
| 2026-05-05 16:45 | 42.58275 | 9.48708 | 1780 ft | 157 kts | 60° |
| 2026-05-05 16:45 | 42.58610 | 9.50122 | 2379 ft | 159 kts | 85° |
| 2026-05-05 16:45 | 42.58772 | 9.51563 | 3122 ft | 151 kts | 81° |
| 2026-05-05 16:45 | 42.58977 | 9.52999 | 3561 ft | 164 kts | 81° |
| 2026-05-05 16:46 | 42.59195 | 9.54602 | 3925 ft | 181 kts | 81° |
| 2026-05-05 16:46 | 42.59446 | 9.56354 | 4324 ft | 197 kts | 80° |
| 2026-05-05 16:46 | 42.59735 | 9.58278 | 4619 ft | 221 kts | 80° |
| 2026-05-05 16:46 | 42.60041 | 9.60444 | 5031 ft | 244 kts | 81° |
| 2026-05-05 16:47 | 42.60374 | 9.62812 | 5557 ft | 266 kts | 81° |
| 2026-05-05 16:47 | 42.60731 | 9.65330 | 6367 ft | 275 kts | 80° |
| 2026-05-05 16:47 | 42.61104 | 9.67931 | 7134 ft | 285 kts | 80° |
| 2026-05-05 16:47 | 42.61487 | 9.70580 | 8059 ft | 287 kts | 80° |
| 2026-05-05 16:48 | 42.62116 | 9.73179 | 8904 ft | 296 kts | 62° |
| 2026-05-05 16:48 | 42.63365 | 9.75432 | 9733 ft | 303 kts | 44° |
| 2026-05-05 16:48 | 42.65060 | 9.77182 | 10344 ft | 316 kts | 28° |
| 2026-05-05 16:48 | 42.67070 | 9.78626 | 10641 ft | 339 kts | 26° |
| 2026-05-05 16:49 | 42.69227 | 9.80173 | 10934 ft | 360 kts | 27° |
| 2026-05-05 16:49 | 42.71469 | 9.81805 | 11527 ft | 370 kts | 27° |
| 2026-05-05 16:49 | 42.73752 | 9.83480 | 12234 ft | 376 kts | 27° |
| 2026-05-05 16:49 | 42.75949 | 9.85479 | 12943 ft | 384 kts | 38° |
| 2026-05-05 16:50 | 42.77854 | 9.88056 | 13647 ft | 390 kts | 50° |
| 2026-05-05 16:50 | 42.79385 | 9.91133 | 14289 ft | 395 kts | 62° |
| 2026-05-05 16:50 | 42.80524 | 9.94555 | 14962 ft | 398 kts | 68° |
| 2026-05-05 16:50 | 42.81608 | 9.98047 | 15630 ft | 402 kts | 68° |
| 2026-05-05 16:51 | 42.82700 | 10.01566 | 16282 ft | 406 kts | 68° |
| 2026-05-05 16:51 | 42.83805 | 10.05122 | 16916 ft | 409 kts | 68° |
| 2026-05-05 16:51 | 42.84919 | 10.08709 | 17578 ft | 413 kts | 68° |
| 2026-05-05 16:51 | 42.86045 | 10.12334 | 18226 ft | 417 kts | 68° |
| 2026-05-05 16:52 | 42.87178 | 10.15989 | 18775 ft | 421 kts | 68° |
| 2026-05-05 16:52 | 42.88307 | 10.19631 | 19321 ft | 424 kts | 68° |
| 2026-05-05 16:52 | 42.89458 | 10.23353 | 19792 ft | 428 kts | 68° |
| 2026-05-05 16:52 | 42.90613 | 10.27104 | 19934 ft | 429 kts | 68° |
| 2026-05-05 16:53 | 42.91789 | 10.30925 | 19983 ft | 445 kts | 68° |
| 2026-05-05 16:53 | 42.92994 | 10.34846 | 19980 ft | 450 kts | 68° |
| 2026-05-05 16:53 | 42.94110 | 10.38841 | 19976 ft | 451 kts | 76° |
| 2026-05-05 16:53 | 42.94485 | 10.43059 | 19984 ft | 447 kts | 94° |
| 2026-05-05 16:54 | 42.93974 | 10.47208 | 19983 ft | 442 kts | 111° |
| 2026-05-05 16:54 | 42.92655 | 10.50942 | 19983 ft | 435 kts | 128° |
| 2026-05-05 16:54 | 42.90660 | 10.53983 | 19983 ft | 427 kts | 144° |
| 2026-05-05 16:54 | 42.88180 | 10.56124 | 19983 ft | 420 kts | 160° |
| 2026-05-05 16:55 | 42.85471 | 10.57567 | 19978 ft | 418 kts | 163° |
| 2026-05-05 16:55 | 42.82744 | 10.58965 | 19984 ft | 420 kts | 163° |
| 2026-05-05 16:55 | 42.80006 | 10.60363 | 19987 ft | 420 kts | 163° |
| 2026-05-05 16:55 | 42.77271 | 10.61763 | 19990 ft | 420 kts | 162° |
| 2026-05-05 16:56 | 42.74623 | 10.63486 | 19988 ft | 425 kts | 152° |
| 2026-05-05 16:56 | 42.72229 | 10.65873 | 19978 ft | 429 kts | 141° |
| 2026-05-05 16:56 | 42.70182 | 10.68844 | 19978 ft | 434 kts | 130° |
| 2026-05-05 16:56 | 42.68504 | 10.72275 | 19986 ft | 436 kts | 124° |
| 2026-05-05 16:57 | 42.66905 | 10.75774 | 19984 ft | 436 kts | 124° |
| 2026-05-05 16:57 | 42.65303 | 10.79274 | 19983 ft | 436 kts | 125° |
| 2026-05-05 16:57 | 42.63699 | 10.82771 | 19984 ft | 437 kts | 125° |
| 2026-05-05 16:57 | 42.62091 | 10.86273 | 19986 ft | 437 kts | 125° |
| 2026-05-05 16:58 | 42.61028 | 10.88585 | 19990 ft | 437 kts | 125° |
| 2026-05-05 16:58 | 42.59409 | 10.92098 | 19999 ft | 444 kts | 125° |
| 2026-05-05 16:58 | 42.57750 | 10.95685 | 20002 ft | 452 kts | 125° |
| 2026-05-05 16:58 | 42.56100 | 10.99262 | 19995 ft | 442 kts | 125° |
| 2026-05-05 16:59 | 42.54473 | 11.02790 | 20010 ft | 446 kts | 125° |
| 2026-05-05 16:59 | 42.52809 | 11.06382 | 20001 ft | 447 kts | 125° |
| 2026-05-05 16:59 | 42.51175 | 11.09916 | 20006 ft | 439 kts | 125° |
| 2026-05-05 16:59 | 42.49557 | 11.13409 | 20005 ft | 433 kts | 125° |
| 2026-05-05 17:00 | 42.47982 | 11.16806 | 19807 ft | 419 kts | 125° |
| 2026-05-05 17:00 | 42.46457 | 11.20098 | 19563 ft | 407 kts | 125° |
| 2026-05-05 17:00 | 42.45019 | 11.23341 | 19361 ft | 397 kts | 120° |
| 2026-05-05 17:00 | 42.44023 | 11.26779 | 19227 ft | 388 kts | 108° |
| 2026-05-05 17:01 | 42.43504 | 11.30339 | 18885 ft | 384 kts | 101° |
| 2026-05-05 17:01 | 42.43102 | 11.33879 | 18220 ft | 377 kts | 101° |
| 2026-05-05 17:01 | 42.42711 | 11.37373 | 17392 ft | 374 kts | 101° |
| 2026-05-05 17:01 | 42.42328 | 11.40828 | 16769 ft | 368 kts | 101° |
| 2026-05-05 17:02 | 42.41950 | 11.44238 | 16301 ft | 365 kts | 101° |
| 2026-05-05 17:02 | 42.41570 | 11.47628 | 15826 ft | 365 kts | 101° |
| 2026-05-05 17:02 | 42.41190 | 11.50975 | 15349 ft | 365 kts | 101° |
| 2026-05-05 17:02 | 42.40799 | 11.54379 | 15131 ft | 356 kts | 102° |
| 2026-05-05 17:03 | 42.40157 | 11.57534 | 15015 ft | 341 kts | 116° |
| 2026-05-05 17:03 | 42.39072 | 11.60264 | 14821 ft | 329 kts | 129° |
| 2026-05-05 17:03 | 42.37655 | 11.62660 | 14405 ft | 326 kts | 134° |
| 2026-05-05 17:03 | 42.36205 | 11.64994 | 13934 ft | 323 kts | 134° |
| 2026-05-05 17:04 | 42.34764 | 11.67307 | 13292 ft | 320 kts | 134° |
| 2026-05-05 17:04 | 42.33335 | 11.69602 | 12667 ft | 317 kts | 134° |
| 2026-05-05 17:04 | 42.31906 | 11.71897 | 12131 ft | 315 kts | 133° |
| 2026-05-05 17:04 | 42.30523 | 11.74124 | 11632 ft | 312 kts | 133° |
| 2026-05-05 17:05 | 42.29130 | 11.76367 | 11285 ft | 309 kts | 133° |
| 2026-05-05 17:05 | 42.27757 | 11.78574 | 10710 ft | 306 kts | 134° |
| 2026-05-05 17:05 | 42.26390 | 11.80765 | 10121 ft | 302 kts | 133° |
| 2026-05-05 17:05 | 42.25049 | 11.82918 | 9606 ft | 297 kts | 134° |
| 2026-05-05 17:06 | 42.23724 | 11.85041 | 9129 ft | 294 kts | 133° |
| 2026-05-05 17:06 | 42.22412 | 11.87141 | 8668 ft | 291 kts | 133° |
| 2026-05-05 17:06 | 42.21109 | 11.89228 | 8240 ft | 291 kts | 133° |
| 2026-05-05 17:06 | 42.19804 | 11.91316 | 7743 ft | 293 kts | 133° |
| 2026-05-05 17:07 | 42.18495 | 11.93405 | 7277 ft | 292 kts | 134° |
| 2026-05-05 17:07 | 42.17187 | 11.95494 | 6804 ft | 288 kts | 134° |
| 2026-05-05 17:07 | 42.16035 | 11.97335 | 6402 ft | 278 kts | 132° |
| 2026-05-05 17:07 | 42.14816 | 11.99286 | 5957 ft | 266 kts | 134° |
| 2026-05-05 17:08 | 42.13650 | 12.01153 | 5546 ft | 253 kts | 134° |
| 2026-05-05 17:08 | 42.12532 | 12.02936 | 5161 ft | 247 kts | 134° |
| 2026-05-05 17:08 | 42.11438 | 12.04663 | 4774 ft | 238 kts | 136° |
| 2026-05-05 17:08 | 42.10353 | 12.06282 | 4389 ft | 228 kts | 137° |
| 2026-05-05 17:09 | 42.09305 | 12.07806 | 4048 ft | 218 kts | 137° |
| 2026-05-05 17:09 | 42.08283 | 12.09285 | 3717 ft | 212 kts | 137° |
| 2026-05-05 17:09 | 42.07276 | 12.10736 | 3404 ft | 213 kts | 137° |
| 2026-05-05 17:09 | 42.06257 | 12.12207 | 3049 ft | 216 kts | 136° |
| 2026-05-05 17:10 | 42.05240 | 12.13682 | 2884 ft | 210 kts | 137° |
| 2026-05-05 17:10 | 42.04275 | 12.15094 | 2829 ft | 200 kts | 136° |
| 2026-05-05 17:10 | 42.03359 | 12.16436 | 2791 ft | 189 kts | 136° |
| 2026-05-05 17:10 | 42.02493 | 12.17704 | 2789 ft | 181 kts | 136° |
| 2026-05-05 17:11 | 42.01596 | 12.18844 | 2692 ft | 173 kts | 150° |
| 2026-05-05 17:11 | 42.00502 | 12.19471 | 2612 ft | 170 kts | 165° |
| 2026-05-05 17:11 | 41.99384 | 12.19939 | 2534 ft | 165 kts | 164° |
| 2026-05-05 17:11 | 41.98332 | 12.20382 | 2500 ft | 151 kts | 165° |
| 2026-05-05 17:12 | 41.97372 | 12.20785 | 2497 ft | 140 kts | 163° |
| 2026-05-05 17:12 | 41.96458 | 12.21169 | 2409 ft | 135 kts | 163° |
| 2026-05-05 17:12 | 41.95571 | 12.21542 | 2269 ft | 133 kts | 163° |
| 2026-05-05 17:12 | 41.94694 | 12.21911 | 2135 ft | 131 kts | 162° |
| 2026-05-05 17:13 | 41.93829 | 12.22274 | 1959 ft | 130 kts | 164° |
| 2026-05-05 17:13 | 41.92969 | 12.22634 | 1750 ft | 129 kts | 164° |
| 2026-05-05 17:13 | 41.92115 | 12.22993 | 1601 ft | 128 kts | 163° |
| 2026-05-05 17:13 | 41.91259 | 12.23350 | 1397 ft | 128 kts | 163° |
| 2026-05-05 17:14 | 41.90409 | 12.23705 | 1261 ft | 128 kts | 163° |
| 2026-05-05 17:14 | 41.89554 | 12.24069 | 1092 ft | 129 kts | 162° |
| 2026-05-05 17:14 | 41.88703 | 12.24424 | 942 ft | 128 kts | 162° |
| 2026-05-05 17:14 | 41.87854 | 12.24785 | 748 ft | 130 kts | 163° |
| 2026-05-05 17:15 | 41.86989 | 12.25148 | 559 ft | 129 kts | 161° |
| 2026-05-05 17:15 | 41.86147 | 12.25497 | 382 ft | 130 kts | 159° |
| 2026-05-05 17:15 | 41.85301 | 12.25845 | 223 ft | 126 kts | 159° |
| 2026-05-05 17:15 | 41.84468 | 12.26211 | 64 ft | 126 kts | 159° |
| 2026-05-05 17:16 | 41.83705 | 12.26547 | 16 ft | 100 kts | 159° |
| 2026-05-05 17:16 | 41.83202 | 12.26733 | 11 ft | 52 kts | 165° |
| 2026-05-05 17:16 | 41.82899 | 12.26863 | 14 ft | 41 kts | 165° |
| 2026-05-05 17:16 | 41.82645 | 12.26854 | 11 ft | 35 kts | 195° |
| 2026-05-05 17:17 | 41.82430 | 12.26795 | 11 ft | 29 kts | 191° |
| 2026-05-05 17:17 | 41.82242 | 12.26814 | 11 ft | 26 kts | 163° |
| 2026-05-05 17:17 | 41.82079 | 12.26882 | 11 ft | 24 kts | 162° |
| 2026-05-05 17:17 | 41.81927 | 12.26948 | 11 ft | 23 kts | 161° |
| 2026-05-05 17:18 | 41.81783 | 12.27007 | 12 ft | 21 kts | 163° |
| 2026-05-05 17:18 | 41.81644 | 12.27065 | 12 ft | 21 kts | 163° |
| 2026-05-05 17:18 | 41.81502 | 12.27123 | 12 ft | 21 kts | 162° |
| 2026-05-05 17:18 | 41.81359 | 12.27185 | 12 ft | 22 kts | 161° |
| 2026-05-05 17:19 | 41.81210 | 12.27248 | 12 ft | 23 kts | 164° |
| 2026-05-05 17:19 | 41.81059 | 12.27310 | 12 ft | 22 kts | 163° |
| 2026-05-05 17:19 | 41.80923 | 12.27351 | 13 ft | 21 kts | 178° |
| 2026-05-05 17:19 | 41.80795 | 12.27327 | 13 ft | 14 kts | 190° |
| 2026-05-05 17:20 | 41.80692 | 12.27285 | 13 ft | 16 kts | 218° |
| 2026-05-05 17:20 | 41.80639 | 12.27165 | 14 ft | 8 kts | 249° |
| 2026-05-05 17:20 | 41.80638 | 12.27162 | 14 ft | 0 kts | 250° |
| 2026-05-05 17:21 | 41.80634 | 12.27146 | 13 ft | 7 kts | 250° |
| 2026-05-05 17:22 | 41.80577 | 12.26941 | 13 ft | 16 kts | 249° |
| 2026-05-05 17:22 | 41.80540 | 12.26808 | 14 ft | 14 kts | 249° |
| 2026-05-05 17:22 | 41.80508 | 12.26692 | 16 ft | 12 kts | 249° |
| 2026-05-05 17:22 | 41.80481 | 12.26593 | 15 ft | 11 kts | 250° |
| 2026-05-05 17:23 | 41.80457 | 12.26503 | 16 ft | 10 kts | 250° |
| 2026-05-05 17:23 | 41.80435 | 12.26423 | 15 ft | 9 kts | 248° |
| 2026-05-05 17:23 | 41.80394 | 12.26368 | 15 ft | 8 kts | 205° |
| 2026-05-05 17:23 | 41.80369 | 12.26364 | 14 ft | 0 kts | 178° |
| 2026-05-05 17:25 | 41.80360 | 12.26365 | 14 ft | 3 kts | 170° |
| 2026-05-05 17:26 | 41.80328 | 12.26380 | 14 ft | 6 kts | 159° |
| 2026-05-05 17:26 | 41.80279 | 12.26404 | 14 ft | 9 kts | 162° |
| 2026-05-05 17:26 | 41.80214 | 12.26404 | 14 ft | 11 kts | 197° |
| 2026-05-05 17:26 | 41.80138 | 12.26360 | 14 ft | 13 kts | 205° |
| 2026-05-05 17:27 | 41.80052 | 12.26304 | 16 ft | 15 kts | 206° |
| 2026-05-05 17:27 | 41.79955 | 12.26242 | 14 ft | 16 kts | 205° |
| 2026-05-05 17:27 | 41.79847 | 12.26174 | 14 ft | 18 kts | 204° |
| 2026-05-05 17:27 | 41.79796 | 12.26145 | 14 ft | 4 kts | 205° |
| 2026-05-05 17:28 | 41.79770 | 12.26116 | 14 ft | 6 kts | 234° |
| 2026-05-05 17:28 | 41.79769 | 12.26062 | 14 ft | 6 kts | 290° |
| 2026-05-05 17:28 | 41.79794 | 12.25988 | 14 ft | 12 kts | 296° |
| 2026-05-05 17:28 | 41.79841 | 12.25857 | 14 ft | 7 kts | 295° |
| 2026-05-05 17:29 | 41.79836 | 12.25794 | 14 ft | 8 kts | 226° |
| 2026-05-05 17:29 | 41.79783 | 12.25755 | 17 ft | 10 kts | 205° |
| 2026-05-05 17:29 | 41.79749 | 12.25730 | 16 ft | 5 kts | 227° |
| 2026-05-05 17:29 | 41.79753 | 12.25692 | 14 ft | 0 kts | 293° |
| 2026-05-05 17:30 | 41.79757 | 12.25681 | 15 ft | 1 kts | 296° |
| 2026-05-05 17:30 | 41.79760 | 12.25674 | 16 ft | 0 kts | 295° |
| 2026-05-05 17:30 | 41.79761 | 12.25670 | 15 ft | 1 kts | 295° |
| 2026-05-05 17:30 | 41.79764 | 12.25664 | 15 ft | 1 kts | 296° |
| 2026-05-05 17:31 | 41.79764 | 12.25663 | 15 ft | 0 kts | 296° |